Time;durP1;ratioP1;P1;durP2;ratioP2;P2;SDS_P1;SDS_P2;PMS_P1;PMS_P2;Temp;Humidity;BMP_temperature;BMP_pressure;BME280_temperature;BME280_humidity;BME280_pressure;Samples;Min_cycle;Max_cycle;Signal;HPM_P1;HPM_P2
2021/03/27 00:01:02;;;;;;;9.20;1.98;;;6.70;99.90;;;;;;5040017;28;20041;-62
2021/03/27 00:03:46;;;;;;;3.13;1.20;;;6.70;99.90;;;;;;5042218;28;20045;-62
2021/03/27 00:06:22;;;;;;;3.65;1.70;;;6.70;99.90;;;;;;5040179;28;20051;-63
2021/03/27 00:08:58;;;;;;;3.72;1.58;;;6.60;99.90;;;;;;5042404;28;20055;-62
2021/03/27 00:11:46;;;;;;;2.83;1.42;;;6.50;99.90;;;;;;5040773;28;20041;-63
2021/03/27 00:14:16;;;;;;;4.38;1.55;;;6.50;99.90;;;;;;5041650;28;20041;-62
2021/03/27 00:16:59;;;;;;;5.25;1.50;;;6.40;99.90;;;;;;5042282;28;20069;-63
2021/03/27 00:19:44;;;;;;;7.47;1.33;;;6.40;99.90;;;;;;5041195;28;20095;-62
2021/03/27 00:22:26;;;;;;;2.20;0.95;;;6.30;99.90;;;;;;5042185;28;20048;-62
2021/03/27 00:24:57;;;;;;;3.50;1.33;;;6.10;99.90;;;;;;5040307;28;20037;-63
2021/03/27 00:27:33;;;;;;;3.88;1.13;;;6.00;99.90;;;;;;5041333;28;20049;-62
2021/03/27 00:30:06;;;;;;;5.95;1.10;;;6.00;99.90;;;;;;5041856;28;20064;-63
2021/03/27 00:32:37;;;;;;;2.30;1.00;;;5.90;99.90;;;;;;5041511;28;20042;-62
2021/03/27 00:35:36;;;;;;;1.30;0.95;;;5.80;99.90;;;;;;5042039;28;20049;-63
2021/03/27 00:38:07;;;;;;;8.77;1.80;;;5.80;99.90;;;;;;5037763;28;20060;-63
2021/03/27 00:40:39;;;;;;;2.40;1.00;;;5.70;99.90;;;;;;5042057;28;20045;-62
2021/03/27 00:43:14;;;;;;;7.80;1.23;;;5.70;99.90;;;;;;5038339;28;20049;-62
2021/03/27 00:45:43;;;;;;;3.00;1.48;;;5.70;99.90;;;;;;5037660;28;20045;-63
2021/03/27 00:48:22;;;;;;;1.88;1.10;;;5.70;99.90;;;;;;5035127;28;20056;-63
2021/03/27 00:50:56;;;;;;;3.15;1.60;;;5.70;99.90;;;;;;5038873;28;20111;-63
2021/03/27 00:53:28;;;;;;;1.80;1.35;;;5.70;99.90;;;;;;5039932;28;20045;-62
2021/03/27 00:56:14;;;;;;;6.18;1.60;;;5.70;99.90;;;;;;5042212;28;20083;-63
2021/03/27 00:58:47;;;;;;;4.70;1.48;;;5.70;99.90;;;;;;5036151;28;20073;-63
2021/03/27 01:01:15;;;;;;;2.75;1.63;;;5.70;99.90;;;;;;5040033;28;20095;-63
2021/03/27 01:03:43;;;;;;;;;;;5.70;99.90;;;;;;5036700;28;20046;-63
2021/03/27 01:06:22;;;;;;;9.85;1.60;;;5.70;99.90;;;;;;5027706;28;19944;-63
2021/03/27 01:08:50;;;;;;;4.28;1.95;;;5.70;99.90;;;;;;5037031;28;20482;-63
2021/03/27 01:11:33;;;;;;;3.03;1.83;;;5.70;99.90;;;;;;5034779;28;20060;-63
2021/03/27 01:14:02;;;;;;;3.03;1.42;;;5.70;99.90;;;;;;5033088;28;20046;-62
2021/03/27 01:16:35;;;;;;;6.60;1.90;;;5.60;99.90;;;;;;5042192;28;20091;-63
2021/03/27 01:19:07;;;;;;;3.50;1.70;;;5.60;99.90;;;;;;5041101;28;20033;-62
2021/03/27 01:21:36;;;;;;;6.00;1.65;;;5.70;99.90;;;;;;5042556;28;20038;-62
2021/03/27 01:24:07;;;;;;;5.55;1.90;;;5.60;99.90;;;;;;5045074;28;20591;-62
2021/03/27 01:26:54;;;;;;;5.38;1.50;;;5.60;99.90;;;;;;5046371;28;20044;-62
2021/03/27 01:29:38;;;;;;;7.68;2.15;;;5.60;99.90;;;;;;5046003;28;20045;-62
2021/03/27 01:32:16;;;;;;;4.28;1.92;;;5.70;99.90;;;;;;5044983;28;20053;-62
2021/03/27 01:34:48;;;;;;;4.20;1.83;;;5.70;99.90;;;;;;5034993;28;20037;-62
2021/03/27 01:37:22;;;;;;;7.22;1.85;;;5.60;99.90;;;;;;5045248;28;20057;-63
2021/03/27 01:40:08;;;;;;;3.22;1.48;;;5.70;99.90;;;;;;5045501;28;20524;-63
2021/03/27 01:42:52;;;;;;;5.70;1.92;;;5.60;99.90;;;;;;5045582;28;20042;-62
2021/03/27 01:45:46;;;;;;;4.13;1.73;;;5.60;99.90;;;;;;5040572;28;20091;-62
2021/03/27 01:48:25;;;;;;;2.15;1.50;;;5.70;99.90;;;;;;5045788;28;20042;-62
2021/03/27 01:50:57;;;;;;;9.57;2.92;;;5.70;99.90;;;;;;5045844;28;20041;-62
2021/03/27 01:53:54;;;;;;;2.97;2.05;;;5.60;99.90;;;;;;5044323;28;20072;-63
2021/03/27 01:56:32;;;;;;;4.13;1.70;;;5.60;99.90;;;;;;5044786;28;20046;-62
2021/03/27 01:59:10;;;;;;;3.30;1.60;;;5.60;99.90;;;;;;5038394;28;20055;-62
2021/03/27 02:01:41;;;;;;;3.58;1.48;;;5.60;99.90;;;;;;5042696;28;20064;-63
2021/03/27 02:04:35;;;;;;;7.70;1.77;;;5.60;99.90;;;;;;5045413;28;20053;-63
2021/03/27 02:07:21;;;;;;;8.95;2.10;;;5.60;99.90;;;;;;5039571;28;20049;-63
2021/03/27 02:10:24;;;;;;;6.32;1.90;;;5.60;99.90;;;;;;5042262;28;20046;-63
2021/03/27 02:13:00;;;;;;;6.60;1.85;;;5.60;99.90;;;;;;5028184;28;20072;-63
2021/03/27 02:15:34;;;;;;;3.50;1.42;;;5.60;99.90;;;;;;5039277;28;20042;-63
2021/03/27 02:18:04;;;;;;;3.58;1.65;;;5.60;99.90;;;;;;5036003;28;20045;-62
2021/03/27 02:21:07;;;;;;;3.00;1.60;;;5.60;99.90;;;;;;5028618;28;20041;-62
2021/03/27 02:23:58;;;;;;;5.38;1.73;;;5.50;99.90;;;;;;5038617;28;20064;-62
2021/03/27 02:26:40;;;;;;;7.25;1.48;;;5.50;99.90;;;;;;5035455;28;20077;-63
2021/03/27 02:29:44;;;;;;;3.40;1.70;;;5.50;99.90;;;;;;5030767;28;20486;-63
2021/03/27 02:32:29;;;;;;;2.65;1.40;;;5.50;99.90;;;;;;5037725;28;20100;-63
2021/03/27 02:35:15;;;;;;;3.47;1.70;;;5.50;99.90;;;;;;5029931;28;20053;-62
2021/03/27 02:37:59;;;;;;;3.95;1.67;;;5.50;99.90;;;;;;5038477;28;20070;-62
2021/03/27 02:40:34;;;;;;;4.30;2.47;;;5.40;99.90;;;;;;5037222;28;20045;-62
2021/03/27 02:43:24;;;;;;;7.68;2.00;;;5.40;99.90;;;;;;5040298;28;20042;-63
2021/03/27 02:45:55;;;;;;;6.28;2.70;;;5.40;99.90;;;;;;5025556;28;20029;-62
2021/03/27 02:48:37;;;;;;;4.70;2.42;;;5.40;99.90;;;;;;5036438;28;20038;-62
2021/03/27 02:51:12;;;;;;;6.38;3.17;;;5.40;99.90;;;;;;5032915;28;20046;-62
2021/03/27 02:54:10;;;;;;;8.02;3.72;;;5.50;99.90;;;;;;5040601;28;20108;-62
2021/03/27 02:56:41;;;;;;;8.90;4.05;;;5.50;99.90;;;;;;5037681;28;20041;-63
2021/03/27 02:59:26;;;;;;;7.65;4.15;;;5.50;99.90;;;;;;5032470;28;20064;-63
2021/03/27 03:02:23;;;;;;;11.35;4.30;;;5.50;99.90;;;;;;5032374;28;20046;-63
2021/03/27 03:05:06;;;;;;;6.40;4.22;;;5.50;99.90;;;;;;5039104;28;20065;-62
2021/03/27 03:07:39;;;;;;;7.90;4.20;;;5.50;99.90;;;;;;5035422;28;20052;-63
2021/03/27 03:10:26;;;;;;;9.38;4.13;;;5.50;99.90;;;;;;5037191;28;20041;-63
2021/03/27 03:13:10;;;;;;;5.70;4.50;;;5.50;99.90;;;;;;5028471;28;20085;-63
2021/03/27 03:16:16;;;;;;;9.85;5.30;;;5.50;99.90;;;;;;5037822;28;20498;-62
2021/03/27 03:19:08;;;;;;;9.85;5.18;;;5.50;99.90;;;;;;5024881;28;20046;-62
2021/03/27 03:21:36;;;;;;;8.20;4.72;;;5.60;99.90;;;;;;5028289;28;20049;-63
2021/03/27 03:24:17;;;;;;;8.40;4.72;;;5.60;99.90;;;;;;5040115;28;20042;-62
2021/03/27 03:27:05;;;;;;;7.85;4.57;;;5.70;99.90;;;;;;5034497;28;20052;-62
2021/03/27 03:30:10;;;;;;;15.57;5.93;;;5.70;99.90;;;;;;5041406;28;20093;-62
2021/03/27 03:32:48;;;;;;;12.85;5.68;;;5.70;99.90;;;;;;5028458;28;20140;-62
2021/03/27 03:35:35;;;;;;;10.23;7.05;;;5.80;99.90;;;;;;5034220;28;20049;-62
2021/03/27 03:38:20;;;;;;;19.58;6.60;;;5.90;99.90;;;;;;5042733;28;20045;-62
2021/03/27 03:41:08;;;;;;;12.40;6.55;;;5.90;99.90;;;;;;5041015;28;20052;-62
2021/03/27 03:43:39;;;;;;;11.23;7.00;;;6.00;99.90;;;;;;5040874;28;20080;-63
2021/03/27 03:46:36;;;;;;;17.30;7.25;;;6.00;99.90;;;;;;5039503;28;20042;-63
2021/03/27 03:49:39;;;;;;;15.70;6.60;;;6.00;99.90;;;;;;5029793;28;20049;-62
2021/03/27 03:52:19;;;;;;;11.77;6.53;;;6.00;99.90;;;;;;5036645;28;20064;-62
2021/03/27 03:55:04;;;;;;;14.73;6.85;;;6.00;99.90;;;;;;5027938;28;20053;-62
2021/03/27 03:57:29;;;;;;;20.05;8.20;;;6.00;99.90;;;;;;5035080;28;20045;-63
2021/03/27 04:00:14;;;;;;;22.35;7.25;;;5.90;99.90;;;;;;5028492;28;20045;-62
2021/03/27 04:03:02;;;;;;;20.48;7.82;;;5.90;99.90;;;;;;5040241;28;20037;-63
2021/03/27 04:05:39;;;;;;;16.30;6.80;;;5.80;99.90;;;;;;5031957;28;20052;-62
2021/03/27 04:08:29;;;;;;;18.25;6.75;;;5.80;99.90;;;;;;5042570;28;20072;-63
2021/03/27 04:11:05;;;;;;;22.58;7.18;;;5.80;99.90;;;;;;5031673;28;20077;-62
2021/03/27 04:13:45;;;;;;;22.58;6.97;;;5.70;99.90;;;;;;5036411;28;20050;-62
2021/03/27 04:16:17;;;;;;;18.80;6.57;;;5.70;99.90;;;;;;5024454;28;20073;-62
2021/03/27 04:19:11;;;;;;;22.45;5.55;;;5.70;99.90;;;;;;5032343;28;20054;-62
2021/03/27 04:21:51;;;;;;;18.70;5.63;;;5.70;99.90;;;;;;5024416;28;20076;-62
2021/03/27 04:24:26;;;;;;;23.67;4.47;;;5.70;99.90;;;;;;5030565;28;20124;-62
2021/03/27 04:26:57;;;;;;;14.13;4.68;;;5.70;99.90;;;;;;5024759;28;20054;-62
2021/03/27 04:29:50;;;;;;;13.00;3.42;;;5.60;99.90;;;;;;5042108;28;20045;-63
2021/03/27 04:32:27;;;;;;;13.88;3.83;;;5.60;99.90;;;;;;5036915;28;20089;-62
2021/03/27 04:35:09;;;;;;;12.10;5.13;;;5.60;99.90;;;;;;5031252;28;20525;-63
2021/03/27 04:38:06;;;;;;;15.90;4.05;;;5.60;99.90;;;;;;5023996;28;20061;-62
2021/03/27 04:40:56;;;;;;;11.50;3.45;;;5.50;99.90;;;;;;5030424;28;20094;-62
2021/03/27 04:43:44;;;;;;;12.98;3.28;;;5.40;99.90;;;;;;5042227;28;20080;-62
2021/03/27 04:46:20;;;;;;;27.27;5.07;;;5.40;99.90;;;;;;5028199;28;20080;-63
2021/03/27 04:49:17;;;;;;;10.73;3.42;;;5.30;99.90;;;;;;5036543;28;20097;-62
2021/03/27 04:51:48;;;;;;;12.50;3.60;;;5.20;99.90;;;;;;5021735;28;20114;-62
2021/03/27 04:54:45;;;;;;;17.45;3.13;;;5.20;99.90;;;;;;5036365;28;20055;-62
2021/03/27 04:57:22;;;;;;;19.73;4.55;;;5.20;99.90;;;;;;5032955;28;20099;-62
2021/03/27 05:00:26;;;;;;;15.15;3.40;;;5.10;99.90;;;;;;5046374;28;20049;-62
2021/03/27 05:03:06;;;;;;;15.60;4.47;;;5.10;99.90;;;;;;4983672;28;20051;-62
2021/03/27 05:05:50;;;;;;;16.42;3.65;;;5.10;99.90;;;;;;4974009;28;20094;-62
2021/03/27 05:09:00;;;;;;;21.83;4.32;;;5.20;99.90;;;;;;4984680;28;20125;-62
2021/03/27 05:11:29;;;;;;;21.98;4.47;;;5.20;99.90;;;;;;4927636;29;20068;-62
2021/03/27 05:14:18;;;;;;;13.20;3.85;;;5.20;99.90;;;;;;4928510;29;20060;-62
2021/03/27 05:17:00;;;;;;;18.52;3.83;;;5.20;99.90;;;;;;4927263;29;20150;-62
2021/03/27 05:19:38;;;;;;;13.43;3.15;;;5.20;99.90;;;;;;4928769;29;20064;-61
2021/03/27 05:22:34;;;;;;;16.05;3.97;;;5.20;99.90;;;;;;4928383;29;20072;-62
2021/03/27 05:25:12;;;;;;;14.93;3.88;;;5.20;99.90;;;;;;4925035;29;20091;-62
2021/03/27 05:28:03;;;;;;;15.55;3.80;;;5.20;99.90;;;;;;4926621;29;20079;-62
2021/03/27 05:31:06;;;;;;;20.15;3.97;;;5.20;99.90;;;;;;4926167;29;20059;-62
2021/03/27 05:34:08;;;;;;;20.52;3.80;;;5.10;99.90;;;;;;4934628;29;20059;-62
2021/03/27 05:36:39;;;;;;;25.17;3.20;;;5.10;99.90;;;;;;4919206;29;20051;-62
2021/03/27 05:39:29;;;;;;;16.75;3.50;;;5.20;99.90;;;;;;4968476;28;20055;-62
2021/03/27 05:42:03;;;;;;;16.00;3.13;;;5.20;99.90;;;;;;4978978;28;20102;-64
2021/03/27 05:45:20;;;;;;;16.70;3.70;;;5.30;99.90;;;;;;4977573;28;20161;-61
2021/03/27 05:48:04;;;;;;;11.80;3.03;;;5.30;99.90;;;;;;5003799;28;20066;-62
2021/03/27 05:50:59;;;;;;;18.10;3.00;;;5.40;99.90;;;;;;5003500;28;20088;-62
2021/03/27 05:53:39;;;;;;;7.15;1.95;;;5.10;99.90;;;;;;5001649;28;20045;-62
2021/03/27 05:56:29;;;;;;;8.40;2.20;;;4.40;99.90;;;;;;5003461;28;20050;-62
2021/03/27 05:58:58;;;;;;;6.07;1.58;;;4.00;99.90;;;;;;4997736;28;20085;-62
2021/03/27 06:01:46;;;;;;;6.82;2.15;;;3.80;99.90;;;;;;4990261;28;20509;-62
2021/03/27 06:04:44;;;;;;;5.43;2.28;;;3.80;99.90;;;;;;5003200;28;20058;-62
2021/03/27 06:07:22;;;;;;;13.18;3.22;;;3.90;99.90;;;;;;5003255;28;20442;-62
2021/03/27 06:10:11;;;;;;;8.63;2.47;;;4.10;99.90;;;;;;5002068;28;20066;-62
2021/03/27 06:12:55;;;;;;;;;;;4.20;99.90;;;;;;5003924;28;20054;-62
2021/03/27 06:15:27;;;;;;;7.78;2.70;;;4.30;99.90;;;;;;5003328;28;19928;-62
2021/03/27 06:18:17;;;;;;;10.63;3.00;;;4.40;99.90;;;;;;5002948;28;20046;-62
2021/03/27 06:20:51;;;;;;;6.90;1.90;;;4.30;99.90;;;;;;4996211;28;20397;-61
2021/03/27 06:23:50;;;;;;;9.13;3.03;;;4.30;99.90;;;;;;5015766;28;20101;-62
2021/03/27 06:26:34;;;;;;;6.50;2.75;;;4.30;99.90;;;;;;5042366;28;20041;-61
2021/03/27 06:29:12;;;;;;;9.52;2.88;;;4.30;99.90;;;;;;5038892;28;20058;-62
2021/03/27 06:31:38;;;;;;;6.27;2.83;;;4.30;99.90;;;;;;5044842;28;20087;-62
2021/03/27 06:34:32;;;;;;;8.95;2.40;;;4.30;99.90;;;;;;5040605;28;20046;-63
2021/03/27 06:37:00;;;;;;;11.40;3.35;;;4.30;99.90;;;;;;5038283;28;20047;-62
2021/03/27 06:40:07;;;;;;;7.15;2.30;;;4.30;99.90;;;;;;5044313;28;20072;-62
2021/03/27 06:43:07;;;;;;;12.75;3.38;;;4.30;99.90;;;;;;5027767;28;20042;-62
2021/03/27 06:46:03;;;;;;;12.43;3.63;;;4.40;99.90;;;;;;5035597;28;20049;-62
2021/03/27 06:48:50;;;;;;;7.82;2.30;;;4.30;99.90;;;;;;5034050;28;20651;-62
2021/03/27 06:51:37;;;;;;;13.77;2.80;;;4.30;99.90;;;;;;5035398;28;20057;-62
2021/03/27 06:54:21;;;;;;;9.43;2.13;;;4.30;99.90;;;;;;5039333;28;20134;-62
2021/03/27 06:57:06;;;;;;;21.33;3.28;;;4.30;99.90;;;;;;5038863;28;20070;-62
2021/03/27 06:59:44;;;;;;;21.52;3.33;;;4.40;99.90;;;;;;5041591;28;20133;-62
2021/03/27 07:02:18;;;;;;;22.53;4.00;;;4.40;99.90;;;;;;5030003;28;20168;-62
2021/03/27 07:04:44;;;;;;;18.42;2.90;;;4.40;99.90;;;;;;5037096;28;20398;-63
2021/03/27 07:07:43;;;;;;;8.35;2.63;;;4.40;99.90;;;;;;5034566;28;20050;-61
2021/03/27 07:10:17;;;;;;;13.82;3.30;;;4.50;99.90;;;;;;5023786;28;20131;-62
2021/03/27 07:12:48;;;;;;;5.95;2.33;;;4.60;99.90;;;;;;5040194;28;20517;-61
2021/03/27 07:15:39;;;;;;;9.20;2.60;;;4.70;99.90;;;;;;5039163;28;20105;-61
2021/03/27 07:18:23;;;;;;;19.80;3.17;;;4.80;99.90;;;;;;5029485;28;20068;-61
2021/03/27 07:21:05;;;;;;;19.73;3.42;;;4.80;99.90;;;;;;5041572;28;20052;-62
2021/03/27 07:24:08;;;;;;;13.70;3.20;;;4.80;99.90;;;;;;5033073;28;20041;-62
2021/03/27 07:27:07;;;;;;;14.63;4.28;;;4.90;99.90;;;;;;5040819;28;20045;-62
2021/03/27 07:30:00;;;;;;;9.20;2.90;;;5.00;99.90;;;;;;5029555;28;20033;-62
2021/03/27 07:32:46;;;;;;;11.30;3.22;;;5.10;99.90;;;;;;5037135;28;20042;-62
2021/03/27 07:35:17;;;;;;;22.90;4.28;;;5.10;99.90;;;;;;5012980;28;20064;-62
2021/03/27 07:38:04;;;;;;;10.07;3.05;;;5.10;99.90;;;;;;5036914;28;20097;-62
2021/03/27 07:40:57;;;;;;;13.82;3.45;;;5.20;99.90;;;;;;5032545;28;20041;-62
2021/03/27 07:43:36;;;;;;;18.73;3.17;;;5.20;99.90;;;;;;5024492;28;20106;-62
2021/03/27 07:46:23;;;;;;;24.92;4.70;;;5.30;99.90;;;;;;5043016;28;20065;-62
2021/03/27 07:49:29;;;;;;;21.75;4.45;;;5.30;99.90;;;;;;5032136;28;20045;-62
2021/03/27 07:52:26;;;;;;;15.88;3.30;;;5.50;99.90;;;;;;5031418;28;20072;-62
2021/03/27 07:55:41;;;;;;;19.20;3.30;;;5.50;99.90;;;;;;5026333;28;20053;-62
2021/03/27 07:58:24;;;;;;;16.65;3.30;;;5.70;99.90;;;;;;5040097;28;20048;-63
2021/03/27 08:00:59;;;;;;;13.35;2.85;;;5.60;99.90;;;;;;5031124;28;20049;-63
2021/03/27 08:03:28;;;;;;;12.50;2.78;;;5.60;99.90;;;;;;5039476;28;20068;-63
2021/03/27 08:06:25;;;;;;;15.60;3.58;;;5.60;99.90;;;;;;5042085;28;20045;-63
2021/03/27 08:09:10;;;;;;;14.80;3.50;;;5.70;99.90;;;;;;5041902;28;20045;-63
2021/03/27 08:12:13;;;;;;;19.92;4.47;;;5.70;99.90;;;;;;5055357;28;20063;-63
2021/03/27 08:14:55;;;;;;;22.27;3.65;;;5.70;99.90;;;;;;5040348;28;20046;-63
2021/03/27 08:17:21;;;;;;;18.88;3.28;;;5.70;99.90;;;;;;5038747;28;20041;-63
2021/03/27 08:20:10;;;;;;;20.42;4.50;;;5.60;99.90;;;;;;5041745;28;20052;-62
2021/03/27 08:22:42;;;;;;;12.27;3.17;;;5.40;99.90;;;;;;5039277;28;20045;-62
2021/03/27 08:25:30;;;;;;;17.45;3.75;;;5.30;99.90;;;;;;5040271;28;20057;-63
2021/03/27 08:28:30;;;;;;;16.65;3.78;;;5.30;99.90;;;;;;5034483;28;20064;-62
2021/03/27 08:31:33;;;;;;;23.23;4.25;;;5.40;99.90;;;;;;5028118;28;20079;-62
2021/03/27 08:34:30;;;;;;;16.75;3.63;;;5.60;99.90;;;;;;5032545;28;20052;-63
2021/03/27 08:37:26;;;;;;;20.02;3.85;;;5.80;99.90;;;;;;5037587;28;20046;-63
2021/03/27 08:40:13;;;;;;;15.77;2.80;;;5.80;99.90;;;;;;5038879;28;20045;-63
2021/03/27 08:43:14;;;;;;;16.30;4.00;;;5.90;99.90;;;;;;5037055;28;20072;-63
2021/03/27 08:46:05;;;;;;;10.13;3.53;;;5.70;99.90;;;;;;5017331;28;20057;-63
2021/03/27 08:49:01;;;;;;;24.02;4.32;;;5.50;99.90;;;;;;5037489;28;20072;-63
2021/03/27 08:51:32;;;;;;;16.40;3.58;;;5.60;99.90;;;;;;5039716;28;20045;-62
2021/03/27 08:54:13;;;;;;;15.48;3.10;;;5.50;99.90;;;;;;5042200;28;20416;-62
2021/03/27 08:57:23;;;;;;;10.25;2.20;;;5.50;99.90;;;;;;5041385;28;20045;-62
2021/03/27 09:00:10;;;;;;;7.65;2.22;;;5.30;99.90;;;;;;5038725;28;20060;-62
2021/03/27 09:02:55;;;;;;;7.13;1.75;;;5.00;99.90;;;;;;5039974;28;20115;-63
2021/03/27 09:05:52;;;;;;;18.02;2.75;;;4.80;99.90;;;;;;5038940;28;20049;-64
2021/03/27 09:08:36;;;;;;;10.82;2.72;;;4.80;99.90;;;;;;5030872;28;20097;-64
2021/03/27 09:11:07;;;;;;;19.65;3.10;;;4.80;99.90;;;;;;5036073;28;20092;-63
2021/03/27 09:14:14;;;;;;;17.23;3.83;;;5.00;99.90;;;;;;5037175;28;20053;-62
2021/03/27 09:16:42;;;;;;;15.52;2.58;;;5.40;99.90;;;;;;5034143;28;20065;-62
2021/03/27 09:19:26;;;;;;;11.52;2.70;;;5.80;99.90;;;;;;5032951;28;20061;-63
2021/03/27 09:22:03;;;;;;;14.77;3.80;;;6.30;99.90;;;;;;5033333;28;20457;-64
2021/03/27 09:24:42;;;;;;;10.45;2.20;;;6.60;99.90;;;;;;5032813;28;20045;-63
2021/03/27 09:27:36;;;;;;;7.55;2.05;;;6.10;99.90;;;;;;5030514;28;20565;-63
2021/03/27 09:30:15;;;;;;;11.18;2.00;;;5.50;99.90;;;;;;5035222;28;20539;-63
2021/03/27 09:33:22;;;;;;;9.73;3.05;;;5.20;99.90;;;;;;5034034;28;20076;-63
2021/03/27 09:36:16;;;;;;;15.45;2.63;;;4.90;99.90;;;;;;5035181;28;20052;-62
2021/03/27 09:39:15;;;;;;;12.35;2.78;;;4.90;99.90;;;;;;5034826;28;20057;-63
2021/03/27 09:42:18;;;;;;;16.50;3.83;;;4.90;99.90;;;;;;5034852;28;20054;-62
2021/03/27 09:45:10;;;;;;;16.20;3.97;;;5.10;99.90;;;;;;5039919;28;20049;-62
2021/03/27 09:48:27;;;;;;;23.45;5.03;;;5.30;99.90;;;;;;5038982;28;20124;-62
2021/03/27 09:51:30;;;;;;;20.92;3.10;;;5.50;99.90;;;;;;5027182;28;20076;-62
2021/03/27 09:54:06;;;;;;;18.58;3.92;;;5.70;99.90;;;;;;5042812;28;20056;-62
2021/03/27 09:56:56;;;;;;;15.02;2.67;;;6.10;99.90;;;;;;5043932;28;20445;-65
2021/03/27 09:59:43;;;;;;;16.25;2.95;;;6.50;99.90;;;;;;5039033;28;20048;-66
2021/03/27 10:02:29;;;;;;;25.75;4.00;;;6.50;99.90;;;;;;5039139;28;20046;-64
2021/03/27 10:05:24;;;;;;;15.82;2.28;;;6.50;98.50;;;;;;5042416;28;20128;-64
2021/03/27 10:07:58;;;;;;;24.13;3.28;;;6.50;99.90;;;;;;5021536;28;20049;-65
2021/03/27 10:10:33;;;;;;;10.75;2.40;;;6.70;99.80;;;;;;5039878;28;20103;-65
2021/03/27 10:13:03;;;;;;;18.48;3.60;;;6.80;99.50;;;;;;5043500;28;20041;-62
2021/03/27 10:15:36;;;;;;;17.02;3.35;;;6.80;97.70;;;;;;5040180;28;20049;-62
2021/03/27 10:18:14;;;;;;;14.70;3.53;;;6.90;98.40;;;;;;5039684;28;20037;-62
2021/03/27 10:20:53;;;;;;;14.60;3.17;;;6.80;96.00;;;;;;5038672;28;20037;-62
2021/03/27 10:23:34;;;;;;;16.33;3.53;;;6.70;97.80;;;;;;5043757;28;20060;-63
2021/03/27 10:26:21;;;;;;;10.73;2.10;;;6.60;98.80;;;;;;5039837;28;20042;-62
2021/03/27 10:28:52;;;;;;;16.33;3.53;;;6.50;95.50;;;;;;5042237;28;20051;-62
2021/03/27 10:31:31;;;;;;;11.88;2.35;;;6.50;95.90;;;;;;5044386;28;20061;-62
2021/03/27 10:34:15;;;;;;;;;;;6.80;96.30;;;;;;5042649;28;20041;-62
2021/03/27 10:36:48;;;;;;;19.48;2.63;;;7.00;94.60;;;;;;5044505;28;20005;-64
2021/03/27 10:39:45;;;;;;;18.55;3.00;;;6.90;94.30;;;;;;5042777;28;20057;-62
2021/03/27 10:42:34;;;;;;;15.00;2.42;;;6.90;94.00;;;;;;5043030;28;20101;-62
2021/03/27 10:45:17;;;;;;;13.98;2.85;;;7.00;94.00;;;;;;5041663;28;20033;-62
2021/03/27 10:48:04;;;;;;;21.20;3.03;;;7.00;95.60;;;;;;5042690;28;20132;-62
2021/03/27 10:50:38;;;;;;;18.13;3.08;;;7.20;97.40;;;;;;5043279;28;20665;-62
2021/03/27 10:53:19;;;;;;;11.93;2.38;;;7.40;97.90;;;;;;5043911;28;20055;-62
2021/03/27 10:56:06;;;;;;;9.40;2.20;;;7.50;96.50;;;;;;5042301;28;20053;-62
2021/03/27 10:58:51;;;;;;;21.65;2.75;;;7.40;94.10;;;;;;5041850;28;20125;-62
2021/03/27 11:01:55;;;;;;;10.02;2.30;;;7.30;95.10;;;;;;5037650;28;20053;-62
2021/03/27 11:04:52;;;;;;;17.40;2.75;;;7.10;95.70;;;;;;5040639;28;20041;-65
2021/03/27 11:07:36;;;;;;;11.35;3.58;;;6.80;96.80;;;;;;5040162;28;20041;-65
2021/03/27 11:10:23;;;;;;;19.70;3.80;;;6.40;97.10;;;;;;5040882;28;20056;-66
2021/03/27 11:13:16;;;;;;;13.20;2.50;;;6.30;97.50;;;;;;5041694;28;20049;-66
2021/03/27 11:15:56;;;;;;;12.32;2.97;;;6.40;97.90;;;;;;5041252;28;20052;-65
2021/03/27 11:19:23;;;;;;;14.18;2.33;;;6.40;97.00;;;;;;5037568;28;20068;-65
2021/03/27 11:22:07;;;;;;;11.82;2.90;;;6.50;97.10;;;;;;4980703;28;20096;-67
2021/03/27 11:24:40;;;;;;;7.63;1.52;;;6.40;97.40;;;;;;4980110;28;20063;-64
2021/03/27 11:27:22;;;;;;;10.68;2.67;;;5.80;98.50;;;;;;4981464;28;20047;-64
2021/03/27 11:30:30;;;;;;;7.22;1.88;;;5.50;99.40;;;;;;4980016;28;20122;-65
2021/03/27 11:33:24;;;;;;;6.80;1.90;;;5.30;99.80;;;;;;4922219;29;20068;-62
2021/03/27 11:35:52;;;;;;;10.23;2.25;;;5.40;99.90;;;;;;4920277;29;20056;-62
2021/03/27 11:38:33;;;;;;;10.30;2.45;;;5.40;99.40;;;;;;4920172;29;20068;-63
2021/03/27 11:41:16;;;;;;;6.13;1.90;;;5.70;99.90;;;;;;4922272;29;20048;-63
2021/03/27 11:43:52;;;;;;;6.85;2.95;;;5.60;99.90;;;;;;4923064;29;20071;-63
2021/03/27 11:46:40;;;;;;;4.47;1.42;;;5.10;99.90;;;;;;4916771;29;20052;-63
2021/03/27 11:49:36;;;;;;;6.90;1.70;;;4.50;99.90;;;;;;4924055;29;20052;-63
2021/03/27 11:52:29;;;;;;;6.97;1.60;;;4.20;99.90;;;;;;4922715;29;20111;-64
2021/03/27 11:55:07;;;;;;;10.38;1.70;;;4.10;99.90;;;;;;4917605;29;20056;-65
2021/03/27 11:58:11;;;;;;;4.68;1.67;;;4.10;99.90;;;;;;4956658;28;20050;-64
2021/03/27 12:00:47;;;;;;;10.82;2.00;;;4.30;99.90;;;;;;4993842;28;20042;-63
2021/03/27 12:03:22;;;;;;;7.80;1.33;;;4.40;99.90;;;;;;4998061;28;20050;-63
2021/03/27 12:06:09;;;;;;;12.77;2.60;;;4.50;99.90;;;;;;4999673;28;20053;-65
2021/03/27 12:08:50;;;;;;;6.93;1.85;;;4.70;99.90;;;;;;5010251;28;20072;-67
2021/03/27 12:11:15;;;;;;;6.38;2.22;;;4.60;99.90;;;;;;5036330;28;20604;-68
2021/03/27 12:13:56;;;;;;;8.02;2.20;;;4.70;99.90;;;;;;5037682;28;20045;-69
2021/03/27 12:16:31;;;;;;;7.15;1.45;;;4.70;99.90;;;;;;5028763;28;20054;-65
2021/03/27 12:19:34;;;;;;;8.68;1.98;;;4.90;99.90;;;;;;5031604;28;20088;-64
2021/03/27 12:22:17;;;;;;;4.97;1.65;;;4.80;99.90;;;;;;5036527;28;20045;-63
2021/03/27 12:25:11;;;;;;;10.43;2.60;;;5.10;99.90;;;;;;5034186;28;20049;-63
2021/03/27 12:27:43;;;;;;;7.50;1.63;;;5.80;99.90;;;;;;5037823;28;20084;-63
2021/03/27 12:30:46;;;;;;;14.07;1.90;;;6.30;99.90;;;;;;5034628;28;20076;-62
2021/03/27 12:33:26;;;;;;;14.80;2.17;;;6.30;99.90;;;;;;5040176;28;20045;-63
2021/03/27 12:36:18;;;;;;;18.70;4.43;;;5.90;99.90;;;;;;5041569;28;20092;-64
2021/03/27 12:39:08;;;;;;;13.43;3.22;;;5.60;99.90;;;;;;5039702;28;20048;-63
2021/03/27 12:41:40;;;;;;;13.43;2.85;;;5.50;99.90;;;;;;5040439;28;20513;-63
2021/03/27 12:44:12;;;;;;;14.35;3.08;;;5.40;99.90;;;;;;5039639;28;20049;-65
2021/03/27 12:46:44;;;;;;;18.23;3.75;;;5.40;99.90;;;;;;5039964;28;20102;-64
2021/03/27 12:49:39;;;;;;;12.98;2.78;;;5.30;99.90;;;;;;5041754;28;20098;-65
2021/03/27 12:52:22;;;;;;;17.35;3.40;;;5.20;99.90;;;;;;5040822;28;20101;-64
2021/03/27 12:55:21;;;;;;;15.75;3.00;;;4.90;99.90;;;;;;5040759;28;20057;-69
2021/03/27 12:57:54;;;;;;;13.65;2.70;;;4.70;99.90;;;;;;5038226;28;20065;-73
2021/03/27 13:00:44;;;;;;;16.83;3.88;;;4.60;99.90;;;;;;5035578;28;20042;-71
2021/03/27 13:03:31;;;;;;;19.50;3.40;;;4.60;99.90;;;;;;5041447;28;20060;-70
2021/03/27 13:06:15;;;;;;;22.45;3.72;;;4.90;99.90;;;;;;5041246;28;20037;-71
2021/03/27 13:08:47;;;;;;;15.50;3.08;;;5.10;99.90;;;;;;5036870;28;20071;-69
2021/03/27 13:11:33;;;;;;;19.35;3.85;;;5.30;99.90;;;;;;5038059;28;20573;-68
2021/03/27 13:14:36;;;;;;;16.58;3.03;;;5.60;99.90;;;;;;5040122;28;20045;-70
2021/03/27 13:17:13;;;;;;;8.75;2.45;;;5.90;99.90;;;;;;5040267;28;20049;-70
2021/03/27 13:19:59;;;;;;;12.45;3.05;;;6.60;99.90;;;;;;5039955;28;20045;-68
2021/03/27 13:22:36;;;;;;;13.30;2.72;;;7.40;99.90;;;;;;5046114;28;20051;-67
2021/03/27 13:25:01;;;;;;;14.00;2.42;;;7.70;99.90;;;;;;5040159;28;20097;-66
2021/03/27 13:27:33;;;;;;;17.17;3.17;;;7.90;99.90;;;;;;5044266;28;20049;-64
2021/03/27 13:30:19;;;;;;;14.52;2.67;;;8.40;99.90;;;;;;5037924;28;20049;-64
2021/03/27 13:33:05;;;;;;;14.80;3.00;;;8.70;99.90;;;;;;5042576;28;20120;-63
2021/03/27 13:35:49;;;;;;;8.85;2.28;;;8.90;99.90;;;;;;5042295;28;20060;-67
2021/03/27 13:38:32;;;;;;;12.63;2.55;;;9.30;97.00;;;;;;5049941;28;20045;-70
2021/03/27 13:41:07;;;;;;;11.52;3.47;;;9.20;96.30;;;;;;5045638;28;20052;-72
2021/03/27 13:43:46;;;;;;;19.50;3.92;;;8.60;97.10;;;;;;5042855;28;20048;-71
2021/03/27 13:46:27;;;;;;;10.13;3.28;;;8.10;99.90;;;;;;5042337;28;20531;-70
2021/03/27 13:49:22;;;;;;;14.80;3.38;;;8.20;99.90;;;;;;5045067;28;20129;-72
2021/03/27 13:51:53;;;;;;;12.23;2.88;;;8.70;99.90;;;;;;5036720;28;20049;-71
2021/03/27 13:54:31;;;;;;;16.13;2.45;;;9.10;95.40;;;;;;5045171;28;20057;-70
2021/03/27 13:57:15;;;;;;;13.63;2.58;;;9.40;96.70;;;;;;5046422;28;20041;-72
2021/03/27 13:59:43;;;;;;;9.32;2.55;;;10.10;98.30;;;;;;5040765;28;20076;-70
2021/03/27 14:02:48;;;;;;;8.93;2.42;;;9.70;92.30;;;;;;5044280;28;20517;-64
2021/03/27 14:05:18;;;;;;;8.20;3.05;;;9.10;95.70;;;;;;5042139;28;20037;-63
2021/03/27 14:07:51;;;;;;;9.85;2.90;;;9.40;95.40;;;;;;5044111;28;20058;-63
2021/03/27 14:10:35;;;;;;;9.93;2.90;;;9.90;96.80;;;;;;5044432;28;20045;-63
2021/03/27 14:13:26;;;;;;;9.30;2.30;;;10.00;93.30;;;;;;5044842;28;20045;-63
2021/03/27 14:16:18;;;;;;;5.70;2.55;;;10.50;96.60;;;;;;5036541;28;20046;-63
2021/03/27 14:19:10;;;;;;;14.85;2.90;;;9.80;93.00;;;;;;5044182;28;20064;-63
2021/03/27 14:22:13;;;;;;;9.10;2.42;;;9.50;95.20;;;;;;5042081;28;20073;-63